Vejrstation Sortsø Strand
Vejrstation Sortsø Strands historiske vejrdata
 
Daily Summary for April 14, 2024 Units:  Metric    English   Both
Daily Weekly Monthly Yearly Custom
  Current: High: Low: Average:
Temperature: 9.3 °C 14.9 °C 9.3 °C 11.8 °C
Dew Point: 6.2 °C 11.5 °C 6.2 °C 8.6 °C
Humidity: 81% 82% 79% 81%
Wind Speed: 31km/h 43km/h 17km/h 29.8km/h
Wind Gust: 17km/h 25km/h - -
WindNW - - WNW
Pressure: 1011.1 hPa 1011.1 hPa 1009.4 hPa -
Precipitation: 0.00 mm      
Historical Graphs
 
 
Tabular Data for April 14, 2024
Time Temperature Dew Point Pressure Wind Wind Speed Wind Gust Humidity Rainfall Rate (Hourly) solar
00:04 14.2 °C 11.0 °C 1010.4 hPa WSW 23 km/h 16 km/h 81% 0.00 mm 0.00 W/m2
00:09 14.5 °C 11.1 °C 1010.4 hPa WSW 26 km/h 17 km/h 81% 0.00 mm 0.00 W/m2
00:14 14.6 °C 11.2 °C 1010.5 hPa WSW 23 km/h 15 km/h 80% 0.00 mm 0.00 W/m2
00:19 14.8 °C 11.4 °C 1010.6 hPa West 39 km/h 25 km/h 80% 0.00 mm 0.00 W/m2
00:24 14.9 °C 11.4 °C 1010.7 hPa West 39 km/h 22 km/h 80% 0.00 mm 0.00 W/m2
00:29 14.9 °C 11.5 °C 1010.7 hPa West 43 km/h 21 km/h 80% 0.00 mm 0.00 W/m2
00:34 14.8 °C 11.2 °C 1010.5 hPa West 28 km/h 17 km/h 79% 0.00 mm 0.00 W/m2
00:39 14.6 °C 11.0 °C 1010.5 hPa West 30 km/h 17 km/h 79% 0.00 mm 0.00 W/m2
00:44 14.4 °C 10.8 °C 1010.4 hPa West 26 km/h 14 km/h 79% 0.00 mm 0.00 W/m2
00:49 14.3 °C 10.7 °C 1010.4 hPa WNW 30 km/h 15 km/h 79% 0.00 mm 0.00 W/m2
00:54 14.2 °C 10.6 °C 1010.3 hPa West 32 km/h 15 km/h 79% 0.00 mm 0.00 W/m2
00:59 14.1 °C 10.4 °C 1010.4 hPa West 34 km/h 18 km/h 79% 0.00 mm 0.00 W/m2
01:04 13.9 °C 10.3 °C 1010.4 hPa West 24 km/h 20 km/h 79% 0.00 mm 0.00 W/m2
01:09 13.8 °C 10.2 °C 1010.3 hPa WNW 26 km/h 15 km/h 79% 0.00 mm 0.00 W/m2
01:14 13.6 °C 10.2 °C 1010.2 hPa WNW 24 km/h 13 km/h 80% 0.00 mm 0.00 W/m2
01:19 13.5 °C 10.1 °C 1010.3 hPa West 27 km/h 16 km/h 80% 0.00 mm 0.00 W/m2
01:24 13.4 °C 10.0 °C 1010.2 hPa WNW 32 km/h 13 km/h 80% 0.00 mm 0.00 W/m2
01:29 13.3 °C 9.9 °C 1010.2 hPa West 34 km/h 17 km/h 80% 0.00 mm 0.00 W/m2
01:34 13.2 °C 9.8 °C 1010.1 hPa WNW 23 km/h 15 km/h 80% 0.00 mm 0.00 W/m2
01:39 13.1 °C 9.7 °C 1010.0 hPa West 26 km/h 17 km/h 80% 0.00 mm 0.00 W/m2
01:44 12.9 °C 9.8 °C 1010.0 hPa West 34 km/h 18 km/h 81% 0.00 mm 0.00 W/m2
01:49 12.9 °C 9.7 °C 1010.0 hPa WNW 32 km/h 14 km/h 81% 0.00 mm 0.00 W/m2
01:54 12.8 °C 9.7 °C 1010.0 hPa West 34 km/h 19 km/h 81% 0.00 mm 0.00 W/m2
01:59 12.8 °C 9.6 °C 1010.0 hPa WNW 29 km/h 19 km/h 81% 0.00 mm 0.00 W/m2
02:04 12.7 °C 9.6 °C 1009.9 hPa WNW 34 km/h 21 km/h 81% 0.00 mm 0.00 W/m2
02:09 12.7 °C 9.7 °C 1009.9 hPa WNW 33 km/h 19 km/h 82% 0.00 mm 0.00 W/m2
02:14 12.6 °C 9.6 °C 1009.9 hPa WNW 23 km/h 13 km/h 82% 0.00 mm 0.00 W/m2
02:19 12.5 °C 9.5 °C 1009.7 hPa WNW 23 km/h 12 km/h 82% 0.00 mm 0.00 W/m2
02:24 12.4 °C 9.4 °C 1009.6 hPa WNW 24 km/h 14 km/h 82% 0.00 mm 0.00 W/m2
02:29 12.3 °C 9.3 °C 1009.7 hPa WNW 23 km/h 15 km/h 82% 0.00 mm 0.00 W/m2
02:34 12.2 °C 9.2 °C 1009.6 hPa WNW 28 km/h 15 km/h 82% 0.00 mm 0.00 W/m2
02:39 12.1 °C 9.1 °C 1009.7 hPa WNW 32 km/h 17 km/h 82% 0.00 mm 0.00 W/m2
02:44 11.9 °C 8.9 °C 1009.8 hPa WNW 26 km/h 11 km/h 82% 0.00 mm 0.00 W/m2
02:49 11.9 °C 8.9 °C 1009.8 hPa WNW 23 km/h 13 km/h 82% 0.00 mm 0.00 W/m2
02:54 11.8 °C 8.8 °C 1009.7 hPa WNW 26 km/h 14 km/h 82% 0.00 mm 0.00 W/m2
02:59 11.7 °C 8.7 °C 1009.8 hPa WNW 34 km/h 18 km/h 82% 0.00 mm 0.00 W/m2
03:04 11.6 °C 8.6 °C 1009.7 hPa West 26 km/h 17 km/h 82% 0.00 mm 0.00 W/m2
03:09 11.5 °C 8.6 °C 1009.5 hPa WNW 26 km/h 15 km/h 82% 0.00 mm 0.00 W/m2
03:14 11.4 °C 8.4 °C 1009.5 hPa WNW 31 km/h 15 km/h 82% 0.00 mm 0.00 W/m2
03:19 11.3 °C 8.4 °C 1009.5 hPa West 32 km/h 23 km/h 82% 0.00 mm 0.00 W/m2
03:24 11.3 °C 8.3 °C 1009.4 hPa West 32 km/h 19 km/h 82% 0.00 mm 0.00 W/m2
03:29 11.2 °C 8.3 °C 1009.5 hPa WNW 23 km/h 11 km/h 82% 0.00 mm 0.00 W/m2
03:34 11.2 °C 8.2 °C 1009.7 hPa WNW 28 km/h 14 km/h 82% 0.00 mm 0.00 W/m2
03:39 11.1 °C 8.2 °C 1009.6 hPa WNW 32 km/h 19 km/h 82% 0.00 mm 0.00 W/m2
03:44 11.0 °C 8.1 °C 1009.7 hPa West 30 km/h 19 km/h 82% 0.00 mm 0.00 W/m2
03:49 10.9 °C 7.9 °C 1009.8 hPa WNW 34 km/h 18 km/h 82% 0.00 mm 0.00 W/m2
03:54 10.8 °C 7.8 °C 1009.9 hPa NW 26 km/h 15 km/h 82% 0.00 mm 0.00 W/m2
03:59 10.6 °C 7.7 °C 1009.8 hPa West 28 km/h 16 km/h 82% 0.00 mm 0.00 W/m2
04:04 10.5 °C 7.6 °C 1010.0 hPa WNW 34 km/h 21 km/h 82% 0.00 mm 0.00 W/m2
04:09 10.4 °C 7.5 °C 1010.0 hPa WNW 26 km/h 18 km/h 82% 0.00 mm 0.00 W/m2
04:14 10.4 °C 7.4 °C 1010.0 hPa WNW 30 km/h 20 km/h 82% 0.00 mm 0.00 W/m2
04:19 10.3 °C 7.4 °C 1010.0 hPa WNW 32 km/h 18 km/h 82% 0.00 mm 0.00 W/m2
04:24 10.2 °C 7.3 °C 1010.1 hPa WNW 30 km/h 13 km/h 82% 0.00 mm 0.00 W/m2
04:29 10.2 °C 7.2 °C 1010.0 hPa WNW 37 km/h 19 km/h 82% 0.00 mm 0.00 W/m2
04:34 10.2 °C 7.2 °C 1010.2 hPa WNW 32 km/h 19 km/h 82% 0.00 mm 0.00 W/m2
04:39 10.2 °C 7.2 °C 1010.2 hPa WNW 32 km/h 18 km/h 82% 0.00 mm 0.00 W/m2
04:44 10.2 °C 7.2 °C 1010.1 hPa WNW 32 km/h 15 km/h 82% 0.00 mm 0.00 W/m2
04:49 10.2 °C 7.2 °C 1010.2 hPa West 30 km/h 14 km/h 82% 0.00 mm 0.00 W/m2
04:54 10.3 °C 7.3 °C 1010.3 hPa WNW 30 km/h 15 km/h 82% 0.00 mm 0.00 W/m2
04:59 10.3 °C 7.4 °C 1010.4 hPa NW 26 km/h 15 km/h 82% 0.00 mm 0.00 W/m2
05:04 10.3 °C 7.4 °C 1010.5 hPa WNW 28 km/h 20 km/h 82% 0.00 mm 0.00 W/m2
05:09 10.3 °C 7.4 °C 1010.4 hPa NW 34 km/h 19 km/h 82% 0.00 mm 0.00 W/m2
05:14 10.3 °C 7.2 °C 1010.4 hPa WNW 39 km/h 22 km/h 81% 0.00 mm 0.00 W/m2
05:19 10.2 °C 7.1 °C 1010.5 hPa WNW 39 km/h 22 km/h 81% 0.00 mm 0.00 W/m2
05:24 10.1 °C 6.9 °C 1010.6 hPa WNW 30 km/h 19 km/h 81% 0.00 mm 0.00 W/m2
05:29 10.0 °C 6.9 °C 1010.7 hPa WNW 35 km/h 23 km/h 81% 0.00 mm 0.00 W/m2
05:34 9.9 °C 6.8 °C 1010.8 hPa WNW 37 km/h 17 km/h 81% 0.00 mm 0.00 W/m2
05:39 9.8 °C 6.7 °C 1010.8 hPa WNW 35 km/h 22 km/h 81% 0.00 mm 0.00 W/m2
05:44 9.7 °C 6.4 °C 1010.8 hPa NW 35 km/h 17 km/h 80% 0.00 mm 0.00 W/m2
05:49 9.6 °C 6.3 °C 1010.8 hPa WNW 30 km/h 17 km/h 80% 0.00 mm 0.00 W/m2
05:54 9.6 °C 6.3 °C 1011.0 hPa WNW 32 km/h 19 km/h 80% 0.00 mm 0.00 W/m2
05:59 9.6 °C 6.3 °C 1011.0 hPa WNW 30 km/h 18 km/h 80% 0.00 mm 0.00 W/m2
06:04 9.4 °C 6.3 °C 1011.0 hPa WNW 28 km/h 21 km/h 81% 0.00 mm 0.00 W/m2
06:09 9.4 °C 6.3 °C 1011.0 hPa WNW 17 km/h 8 km/h 81% 0.00 mm 0.00 W/m2
06:14 9.3 °C 6.2 °C 1011.0 hPa WNW 19 km/h 13 km/h 81% 0.00 mm 0.00 W/m2
06:19 9.3 °C 6.2 °C 1011.1 hPa NW 31 km/h 17 km/h 81% 0.00 mm 0.00 W/m2
Vejrstation Sortsø Strand
Compliments of Weather Underground - 1.25 mb

© 2006-2024 strandvejr.dk